Sinton, Texas
Current Conditions -  °F | °C
As of 2:51 AM on Thursday 23 Oct 2014 (Local Time) from KCRP Reporting Station
Few Clouds Few Clouds  
Wind Chill: 70°   Ceiling: Unl
Heat Index: 70°   Visibility: 10mi
Dew Point: 63°   Wind: 0mph
Humidity: 78%   Direction: NA
Pressure: 30.04"   Gusts: NA
Location:  28.04°N, 97.51°W
Report Text: KCRP 230751Z 00000KT 10SM FEW021 FEW200 21/17 A3004 RMK AO2 SLP172 T02110172
Loading
Personal Weather Stations






























Interactive Weather Map
Tropical Storm Tracking
New forecast layout! Learn more

10-Day Weather Forecast

Advertisements
Track Severe Weather on mobile